Flight Track Log - Related Links

Times and Time Zones

All times are in EDT time to prevent confusion due to time zone crossing. See the N319EE flight status page for this flight to view local times or setup timezone preferences in your user account.

Time Position Orientation Groundspeed Altitude Reporting Facility
EDT Latitude Longitude Course Direction KTS MPH feet Rate Location/Type
Wed 05:16:14 PM 42.7694 -73.8119 334° Northwest 152 175 1,100  Level Boston Center
Wed 05:17:15 PM 42.8086 -73.8381 334° Northwest 153 176 3,000 1,906 Climbing Boston Center
Wed 05:17:39 PM 42.8253 -73.8500 332° Northwest 159 183 3,800 2,047 Climbing Boston Center
Wed 05:18:40 PM 42.8392 -73.9011 290° West 156 180 5,900 1,820 Climbing Boston Center
Wed 05:19:41 PM 42.8489 -73.9581 283° West 156 180 7,500 1,866 Climbing Boston Center
Wed 05:20:39 PM 42.8522 -74.0147 275° West 151 174 9,600 1,881 Climbing Boston Center
Wed 05:21:39 PM 42.8597 -74.0689 281° West 151 174 11,200 1,537 Climbing Boston Center
Wed 05:22:40 PM 42.8631 -74.1228 275° West 151 174 12,700 1,488 Climbing Boston Center
Wed 05:23:40 PM 42.8686 -74.1794 278° West 151 174 14,200 1,412 Climbing Boston Center
Wed 05:24:39 PM 42.8781 -74.2392 282° West 158 182 15,500 908 Climbing Boston Center
Wed 05:25:39 PM 42.8853 -74.3103 278° West 175 201 16,000 165 Climbing Boston Center
Wed 05:27:00 PM 42.8946 -74.4213 277° West  Level Estimated
Wed 05:27:41 PM 42.8992 -74.4750 277° West 221 254 16,000  Level Boston Center
Wed 05:28:38 PM 42.9058 -74.5603 276° West 226 260 16,000  Level Boston Center
Wed 05:29:40 PM 42.9125 -74.6456 276° West 226 260 16,000  Level Boston Center
Wed 05:30:40 PM 42.9194 -74.7253 277° West 226 260 16,000  Level Boston Center
Wed 05:31:41 PM 42.9261 -74.8022 277° West 232 267 16,000  Level Boston Center
Wed 05:32:41 PM 42.9344 -74.8961 277° West 232 267 16,000  Level Boston Center
Wed 05:33:39 PM 42.9411 -74.9786 276° West 232 267 16,000  Level Boston Center
Wed 05:34:40 PM 42.9475 -75.0611 276° West 227 261 16,000  Level Boston Center
Wed 05:35:40 PM 42.9539 -75.1408 276° West 222 255 16,000  Level Boston Center
Wed 05:36:41 PM 42.9603 -75.2261 276° West 222 255 16,000  Level Boston Center
Wed 05:37:39 PM 42.9644 -75.3117 274° West 222 255 16,000  Level Boston Center
Wed 05:38:39 PM 42.9728 -75.3942 278° West 222 255 16,000  Level Boston Center
Wed 05:39:41 PM 42.9767 -75.4797 274° West 222 255 16,000  Level Boston Center
Wed 05:40:39 PM 42.9847 -75.5653 277° West 222 255 16,000  Level Boston Center
Wed 05:41:40 PM 42.9908 -75.6478 276° West 222 255 16,000  Level Boston Center
Wed 05:42:40 PM 42.9967 -75.7333 275° West 222 255 16,000  Level Boston Center
Wed 05:43:41 PM 43.0033 -75.7961 278° West 217 250 16,000  Level Boston Center
Wed 05:44:38 PM 43.0089 -75.8903 275° West 217 250 16,000  Level Boston Center
Wed 05:45:39 PM 43.0167 -75.9731 277° West 217 250 16,000  Level Boston Center
Wed 05:46:40 PM 43.0203 -76.0556 273° West 217 250 16,000 38 Level Boston Center
Wed 05:48:16 PM 43.0297 -76.1911 275° West 219 252 16,100  Climbing Cleveland Center
Wed 05:50:00 PM 43.0264 -76.3304 278° West  Level FlightAware Approximate
Wed 05:51:10 PM 43.0453 -76.4350 278° West 223 257 16,000  Level Cleveland Center
Wed 05:52:12 PM 43.0658 -76.5111 290° West 216 249 16,000  Level Cleveland Center
Wed 05:53:14 PM 43.0936 -76.5836 298° West 216 249 16,000  Level Cleveland Center
Wed 05:54:16 PM 43.1211 -76.6572 297° West 217 250 16,000  Level Cleveland Center
Wed 05:55:18 PM 43.1522 -76.7425 297° West 215 247 16,000 -774 Level Cleveland Center
Wed 05:56:20 PM 43.1506 -76.8353 269° West 242 278 14,400 -1,610 Descending Cleveland Center
Wed 05:56:40 PM 43.1494 -76.8761 268° West 267 307 13,800 -1,452 Descending Cleveland Center
Wed 05:57:22 PM 43.1475 -76.9358 267° West 263 303 12,900 -1,582 Descending Cleveland Center
Wed 05:58:11 PM 43.1458 -77.0286 269° West 263 303 11,400 -1,548 Descending Cleveland Center
Wed 05:58:24 PM 43.1433 -77.0347 241° Southwest 263 303 11,300 -400 Descending Cleveland Center
Wed 05:59:11 PM 43.1408 -77.1258 268° West 259 298 11,000 -677 Descending Cleveland Center
Wed 05:59:26 PM 43.1403 -77.1511 268° West 258 297 10,600 -1,745 Descending Cleveland Center
Wed 06:00:06 PM 43.1392 -77.2150 269° West 253 291 9,400 -1,714 Descending Cleveland Center
Wed 06:00:29 PM 43.1381 -77.2492 267° West 257 296 8,800 -1,636 Descending Cleveland Center
Wed 06:01:12 PM 43.1403 -77.3283 272° West 262 302 7,600 -1,548 Descending Cleveland Center
Wed 06:01:31 PM 43.1394 -77.3458 266° West 257 296 7,200 -2,262 Descending Cleveland Center
Wed 06:02:13 PM 43.1403 -77.4211 271° West 245 282 5,300 -2,323 Descending Cleveland Center
Wed 06:02:33 PM 43.1417 -77.4400 276° West 252 290 4,800 -2,557 Descending Cleveland Center
Wed 06:03:14 PM 43.1419 -77.5142 270° West 241 277 2,700 -2,419 Descending Cleveland Center
Wed 06:03:35 PM 43.1417 -77.5314 269° West 245 282 2,300 -795 Descending Cleveland Center
Wed 06:04:37 PM 43.1333 -77.6039 261° West 210 242 1,600 -840 Descending Cleveland Center
Wed 06:05:15 PM 43.1258 -77.6433 255° West 130 150 900 -871 Descending Cleveland Center
Wed 06:05:39 PM 43.1225 -77.6533 245° Southwest 171 197 700 -500 Descending Cleveland Center
Wed 06:07:00 PM 43.1167 -77.6667 285° West  Level FlightAware Approximate

Login

Don't have an account? Register now (free) for customized features, flight alerts, and more!